sensor_id;sensor_type;location;lat;lon;timestamp;P1;durP1;ratioP1;P2;durP2;ratioP2
23290;SDS011;11814;44.686;10.842;2023-03-14T00:01:36;44.42;;;22.35;;
23290;SDS011;11814;44.686;10.842;2023-03-14T00:04:03;35.35;;;23.23;;
23290;SDS011;11814;44.686;10.842;2023-03-14T00:06:30;38.67;;;22.45;;
23290;SDS011;11814;44.686;10.842;2023-03-14T00:08:56;34.58;;;23.45;;
23290;SDS011;11814;44.686;10.842;2023-03-14T00:11:22;34.88;;;21.35;;
23290;SDS011;11814;44.686;10.842;2023-03-14T00:13:48;36.30;;;23.33;;
23290;SDS011;11814;44.686;10.842;2023-03-14T00:16:17;43.00;;;24.92;;
23290;SDS011;11814;44.686;10.842;2023-03-14T00:18:43;36.00;;;22.90;;
23290;SDS011;11814;44.686;10.842;2023-03-14T00:21:10;37.72;;;25.25;;
23290;SDS011;11814;44.686;10.842;2023-03-14T00:23:37;35.45;;;24.40;;
23290;SDS011;11814;44.686;10.842;2023-03-14T00:26:08;38.42;;;23.13;;
23290;SDS011;11814;44.686;10.842;2023-03-14T00:28:36;37.60;;;23.40;;
23290;SDS011;11814;44.686;10.842;2023-03-14T00:31:03;39.50;;;24.58;;
23290;SDS011;11814;44.686;10.842;2023-03-14T00:33:30;40.13;;;23.65;;
23290;SDS011;11814;44.686;10.842;2023-03-14T00:36:00;35.90;;;24.08;;
23290;SDS011;11814;44.686;10.842;2023-03-14T00:38:29;39.90;;;25.50;;
23290;SDS011;11814;44.686;10.842;2023-03-14T00:40:55;38.92;;;24.92;;
23290;SDS011;11814;44.686;10.842;2023-03-14T00:43:21;39.17;;;23.15;;
23290;SDS011;11814;44.686;10.842;2023-03-14T00:45:51;39.30;;;25.17;;
23290;SDS011;11814;44.686;10.842;2023-03-14T00:48:18;39.42;;;23.55;;
23290;SDS011;11814;44.686;10.842;2023-03-14T00:50:44;38.92;;;24.48;;
23290;SDS011;11814;44.686;10.842;2023-03-14T00:53:11;36.42;;;23.73;;
23290;SDS011;11814;44.686;10.842;2023-03-14T00:55:37;42.08;;;24.88;;
23290;SDS011;11814;44.686;10.842;2023-03-14T00:58:04;39.38;;;24.15;;
23290;SDS011;11814;44.686;10.842;2023-03-14T01:00:30;39.80;;;23.70;;
23290;SDS011;11814;44.686;10.842;2023-03-14T01:02:56;42.08;;;25.17;;
23290;SDS011;11814;44.686;10.842;2023-03-14T01:05:22;38.53;;;23.77;;
23290;SDS011;11814;44.686;10.842;2023-03-14T01:07:48;42.15;;;24.48;;
23290;SDS011;11814;44.686;10.842;2023-03-14T01:10:14;37.63;;;23.23;;
23290;SDS011;11814;44.686;10.842;2023-03-14T01:12:40;37.85;;;24.35;;
23290;SDS011;11814;44.686;10.842;2023-03-14T01:15:06;40.47;;;24.45;;
23290;SDS011;11814;44.686;10.842;2023-03-14T01:17:32;43.53;;;25.33;;
23290;SDS011;11814;44.686;10.842;2023-03-14T01:19:59;34.17;;;23.13;;
23290;SDS011;11814;44.686;10.842;2023-03-14T01:22:25;41.65;;;24.30;;
23290;SDS011;11814;44.686;10.842;2023-03-14T01:24:51;32.35;;;21.92;;
23290;SDS011;11814;44.686;10.842;2023-03-14T01:27:16;33.15;;;22.77;;
23290;SDS011;11814;44.686;10.842;2023-03-14T01:29:42;29.45;;;22.67;;
23290;SDS011;11814;44.686;10.842;2023-03-14T01:32:08;41.28;;;23.30;;
23290;SDS011;11814;44.686;10.842;2023-03-14T01:34:34;36.85;;;23.52;;
23290;SDS011;11814;44.686;10.842;2023-03-14T01:36:59;35.75;;;23.83;;
23290;SDS011;11814;44.686;10.842;2023-03-14T01:39:25;34.90;;;22.95;;
23290;SDS011;11814;44.686;10.842;2023-03-14T01:41:51;28.63;;;21.40;;
23290;SDS011;11814;44.686;10.842;2023-03-14T01:44:16;32.95;;;20.25;;
23290;SDS011;11814;44.686;10.842;2023-03-14T01:46:43;41.05;;;21.75;;
23290;SDS011;11814;44.686;10.842;2023-03-14T01:49:28;38.08;;;22.80;;
23290;SDS011;11814;44.686;10.842;2023-03-14T01:52:04;32.20;;;21.88;;
23290;SDS011;11814;44.686;10.842;2023-03-14T01:54:42;37.28;;;22.35;;
23290;SDS011;11814;44.686;10.842;2023-03-14T02:00:10;40.38;;;22.52;;
23290;SDS011;11814;44.686;10.842;2023-03-14T02:02:40;33.03;;;20.17;;
23290;SDS011;11814;44.686;10.842;2023-03-14T02:05:10;34.28;;;22.33;;
23290;SDS011;11814;44.686;10.842;2023-03-14T02:07:45;35.65;;;23.17;;
23290;SDS011;11814;44.686;10.842;2023-03-14T02:10:14;35.65;;;21.45;;
23290;SDS011;11814;44.686;10.842;2023-03-14T02:12:44;31.33;;;23.02;;
23290;SDS011;11814;44.686;10.842;2023-03-14T02:15:12;30.42;;;22.52;;
23290;SDS011;11814;44.686;10.842;2023-03-14T02:17:38;35.75;;;21.58;;
23290;SDS011;11814;44.686;10.842;2023-03-14T02:22:53;29.70;;;21.58;;
23290;SDS011;11814;44.686;10.842;2023-03-14T02:25:22;32.22;;;22.17;;
23290;SDS011;11814;44.686;10.842;2023-03-14T02:27:50;36.92;;;23.42;;
23290;SDS011;11814;44.686;10.842;2023-03-14T02:30:17;37.00;;;25.27;;
23290;SDS011;11814;44.686;10.842;2023-03-14T02:32:48;31.45;;;22.63;;
23290;SDS011;11814;44.686;10.842;2023-03-14T02:35:24;38.00;;;25.08;;
23290;SDS011;11814;44.686;10.842;2023-03-14T02:37:57;36.13;;;25.77;;
23290;SDS011;11814;44.686;10.842;2023-03-14T02:40:30;33.38;;;25.35;;
23290;SDS011;11814;44.686;10.842;2023-03-14T02:42:56;39.28;;;26.85;;
23290;SDS011;11814;44.686;10.842;2023-03-14T02:45:25;36.40;;;26.50;;
23290;SDS011;11814;44.686;10.842;2023-03-14T02:48:02;39.60;;;26.52;;
23290;SDS011;11814;44.686;10.842;2023-03-14T02:50:32;35.50;;;25.02;;
23290;SDS011;11814;44.686;10.842;2023-03-14T02:52:59;35.95;;;25.65;;
23290;SDS011;11814;44.686;10.842;2023-03-14T02:55:25;40.15;;;25.38;;
23290;SDS011;11814;44.686;10.842;2023-03-14T02:57:51;33.08;;;24.80;;
23290;SDS011;11814;44.686;10.842;2023-03-14T03:00:18;33.95;;;25.10;;
23290;SDS011;11814;44.686;10.842;2023-03-14T03:02:44;36.40;;;26.10;;
23290;SDS011;11814;44.686;10.842;2023-03-14T03:05:10;34.67;;;25.75;;
23290;SDS011;11814;44.686;10.842;2023-03-14T03:07:36;42.22;;;26.63;;
23290;SDS011;11814;44.686;10.842;2023-03-14T03:10:02;37.35;;;27.08;;
23290;SDS011;11814;44.686;10.842;2023-03-14T03:12:28;40.05;;;28.20;;
23290;SDS011;11814;44.686;10.842;2023-03-14T03:14:54;37.08;;;25.92;;
23290;SDS011;11814;44.686;10.842;2023-03-14T03:17:20;40.63;;;26.75;;
23290;SDS011;11814;44.686;10.842;2023-03-14T03:19:46;35.30;;;26.38;;
23290;SDS011;11814;44.686;10.842;2023-03-14T03:22:11;38.60;;;27.58;;
23290;SDS011;11814;44.686;10.842;2023-03-14T03:24:37;42.97;;;27.45;;
23290;SDS011;11814;44.686;10.842;2023-03-14T03:27:03;37.50;;;27.95;;
23290;SDS011;11814;44.686;10.842;2023-03-14T03:29:29;34.63;;;26.73;;
23290;SDS011;11814;44.686;10.842;2023-03-14T03:31:55;35.13;;;26.13;;
23290;SDS011;11814;44.686;10.842;2023-03-14T03:34:20;37.80;;;25.83;;
23290;SDS011;11814;44.686;10.842;2023-03-14T03:36:46;36.60;;;24.23;;
23290;SDS011;11814;44.686;10.842;2023-03-14T03:39:12;34.45;;;24.50;;
23290;SDS011;11814;44.686;10.842;2023-03-14T03:41:38;35.30;;;24.42;;
23290;SDS011;11814;44.686;10.842;2023-03-14T03:44:04;38.13;;;25.67;;
23290;SDS011;11814;44.686;10.842;2023-03-14T03:46:31;33.33;;;25.40;;
23290;SDS011;11814;44.686;10.842;2023-03-14T03:48:57;31.23;;;22.95;;
23290;SDS011;11814;44.686;10.842;2023-03-14T03:51:24;30.75;;;21.77;;
23290;SDS011;11814;44.686;10.842;2023-03-14T03:53:49;29.55;;;23.63;;
23290;SDS011;11814;44.686;10.842;2023-03-14T03:56:15;30.65;;;22.80;;
23290;SDS011;11814;44.686;10.842;2023-03-14T03:58:41;34.20;;;23.45;;
23290;SDS011;11814;44.686;10.842;2023-03-14T04:01:07;33.88;;;25.15;;
23290;SDS011;11814;44.686;10.842;2023-03-14T04:03:35;38.10;;;25.70;;
23290;SDS011;11814;44.686;10.842;2023-03-14T04:06:07;34.85;;;25.80;;
23290;SDS011;11814;44.686;10.842;2023-03-14T04:08:35;33.65;;;24.65;;
23290;SDS011;11814;44.686;10.842;2023-03-14T04:11:01;34.70;;;25.55;;
23290;SDS011;11814;44.686;10.842;2023-03-14T04:13:28;31.50;;;21.58;;
23290;SDS011;11814;44.686;10.842;2023-03-14T04:15:54;36.22;;;25.83;;
23290;SDS011;11814;44.686;10.842;2023-03-14T04:18:21;42.50;;;28.10;;
23290;SDS011;11814;44.686;10.842;2023-03-14T04:20:52;42.75;;;29.20;;
23290;SDS011;11814;44.686;10.842;2023-03-14T04:23:20;42.42;;;29.45;;
23290;SDS011;11814;44.686;10.842;2023-03-14T04:25:49;40.28;;;27.48;;
23290;SDS011;11814;44.686;10.842;2023-03-14T04:28:16;41.47;;;26.85;;
23290;SDS011;11814;44.686;10.842;2023-03-14T04:30:41;44.00;;;28.52;;
23290;SDS011;11814;44.686;10.842;2023-03-14T04:33:07;41.72;;;26.80;;
23290;SDS011;11814;44.686;10.842;2023-03-14T04:35:33;38.13;;;25.10;;
23290;SDS011;11814;44.686;10.842;2023-03-14T04:37:59;41.38;;;28.15;;
23290;SDS011;11814;44.686;10.842;2023-03-14T04:40:24;39.00;;;26.38;;
23290;SDS011;11814;44.686;10.842;2023-03-14T04:42:50;51.00;;;29.23;;
23290;SDS011;11814;44.686;10.842;2023-03-14T04:45:16;59.10;;;30.38;;
23290;SDS011;11814;44.686;10.842;2023-03-14T04:47:42;61.25;;;32.00;;
23290;SDS011;11814;44.686;10.842;2023-03-14T04:50:08;83.18;;;32.25;;
23290;SDS011;11814;44.686;10.842;2023-03-14T04:52:34;118.45;;;36.10;;
23290;SDS011;11814;44.686;10.842;2023-03-14T04:55:00;87.40;;;36.15;;
23290;SDS011;11814;44.686;10.842;2023-03-14T04:57:26;117.93;;;38.50;;
23290;SDS011;11814;44.686;10.842;2023-03-14T04:59:52;158.77;;;42.33;;
23290;SDS011;11814;44.686;10.842;2023-03-14T05:02:18;114.22;;;39.97;;
23290;SDS011;11814;44.686;10.842;2023-03-14T05:04:43;130.52;;;43.65;;
23290;SDS011;11814;44.686;10.842;2023-03-14T05:07:09;100.38;;;41.60;;
23290;SDS011;11814;44.686;10.842;2023-03-14T05:09:35;101.68;;;43.03;;
23290;SDS011;11814;44.686;10.842;2023-03-14T05:12:00;101.60;;;40.90;;
23290;SDS011;11814;44.686;10.842;2023-03-14T05:14:26;73.25;;;38.88;;
23290;SDS011;11814;44.686;10.842;2023-03-14T05:16:52;81.60;;;39.75;;
23290;SDS011;11814;44.686;10.842;2023-03-14T05:19:18;77.45;;;41.53;;
23290;SDS011;11814;44.686;10.842;2023-03-14T05:21:43;87.30;;;43.83;;
23290;SDS011;11814;44.686;10.842;2023-03-14T05:24:09;65.53;;;39.75;;
23290;SDS011;11814;44.686;10.842;2023-03-14T05:26:35;75.20;;;41.63;;
23290;SDS011;11814;44.686;10.842;2023-03-14T05:29:01;69.32;;;39.13;;
23290;SDS011;11814;44.686;10.842;2023-03-14T05:31:26;65.43;;;37.95;;
23290;SDS011;11814;44.686;10.842;2023-03-14T05:33:52;56.08;;;34.20;;
23290;SDS011;11814;44.686;10.842;2023-03-14T05:36:18;57.28;;;33.95;;
23290;SDS011;11814;44.686;10.842;2023-03-14T05:38:44;58.35;;;33.42;;
23290;SDS011;11814;44.686;10.842;2023-03-14T05:41:09;59.13;;;34.08;;
23290;SDS011;11814;44.686;10.842;2023-03-14T05:43:35;49.67;;;29.55;;
23290;SDS011;11814;44.686;10.842;2023-03-14T05:46:01;48.85;;;28.23;;
23290;SDS011;11814;44.686;10.842;2023-03-14T05:48:27;45.85;;;26.80;;
23290;SDS011;11814;44.686;10.842;2023-03-14T05:50:56;46.83;;;26.75;;
23290;SDS011;11814;44.686;10.842;2023-03-14T05:53:24;32.13;;;16.27;;
23290;SDS011;11814;44.686;10.842;2023-03-14T05:55:53;28.27;;;15.82;;
23290;SDS011;11814;44.686;10.842;2023-03-14T05:58:19;37.58;;;20.33;;
23290;SDS011;11814;44.686;10.842;2023-03-14T06:00:45;28.65;;;17.70;;
23290;SDS011;11814;44.686;10.842;2023-03-14T06:03:11;27.48;;;14.98;;
23290;SDS011;11814;44.686;10.842;2023-03-14T06:05:37;25.92;;;14.30;;
23290;SDS011;11814;44.686;10.842;2023-03-14T06:08:03;28.02;;;19.52;;
23290;SDS011;11814;44.686;10.842;2023-03-14T06:10:29;31.70;;;20.92;;
23290;SDS011;11814;44.686;10.842;2023-03-14T06:12:55;31.50;;;20.92;;
23290;SDS011;11814;44.686;10.842;2023-03-14T06:15:21;36.10;;;25.10;;
23290;SDS011;11814;44.686;10.842;2023-03-14T06:17:47;37.60;;;27.08;;
23290;SDS011;11814;44.686;10.842;2023-03-14T06:20:13;39.70;;;28.70;;
23290;SDS011;11814;44.686;10.842;2023-03-14T06:22:38;40.60;;;29.73;;
23290;SDS011;11814;44.686;10.842;2023-03-14T06:25:05;45.90;;;30.60;;
23290;SDS011;11814;44.686;10.842;2023-03-14T06:27:31;42.72;;;30.40;;
23290;SDS011;11814;44.686;10.842;2023-03-14T06:29:58;38.85;;;29.67;;
23290;SDS011;11814;44.686;10.842;2023-03-14T06:32:23;42.13;;;29.88;;
23290;SDS011;11814;44.686;10.842;2023-03-14T06:34:50;42.45;;;31.42;;
23290;SDS011;11814;44.686;10.842;2023-03-14T06:37:15;49.90;;;35.33;;
23290;SDS011;11814;44.686;10.842;2023-03-14T06:39:41;52.78;;;35.65;;
23290;SDS011;11814;44.686;10.842;2023-03-14T06:42:08;53.25;;;37.28;;
23290;SDS011;11814;44.686;10.842;2023-03-14T06:44:34;49.00;;;35.85;;
23290;SDS011;11814;44.686;10.842;2023-03-14T06:47:00;49.10;;;35.15;;
23290;SDS011;11814;44.686;10.842;2023-03-14T06:49:26;50.42;;;36.17;;
23290;SDS011;11814;44.686;10.842;2023-03-14T06:51:52;50.53;;;33.78;;
23290;SDS011;11814;44.686;10.842;2023-03-14T06:54:18;48.28;;;33.63;;
23290;SDS011;11814;44.686;10.842;2023-03-14T06:56:43;44.47;;;32.33;;
23290;SDS011;11814;44.686;10.842;2023-03-14T06:59:09;44.55;;;32.05;;
23290;SDS011;11814;44.686;10.842;2023-03-14T07:01:35;46.55;;;31.17;;
23290;SDS011;11814;44.686;10.842;2023-03-14T07:04:01;46.65;;;32.63;;
23290;SDS011;11814;44.686;10.842;2023-03-14T07:06:27;46.10;;;31.73;;
23290;SDS011;11814;44.686;10.842;2023-03-14T07:08:54;48.20;;;33.10;;
23290;SDS011;11814;44.686;10.842;2023-03-14T07:11:21;49.45;;;33.55;;
23290;SDS011;11814;44.686;10.842;2023-03-14T07:13:47;46.25;;;31.85;;
23290;SDS011;11814;44.686;10.842;2023-03-14T07:16:13;43.72;;;30.30;;
23290;SDS011;11814;44.686;10.842;2023-03-14T07:18:38;43.15;;;29.77;;
23290;SDS011;11814;44.686;10.842;2023-03-14T07:21:05;44.47;;;29.08;;
23290;SDS011;11814;44.686;10.842;2023-03-14T07:23:32;45.00;;;28.52;;
23290;SDS011;11814;44.686;10.842;2023-03-14T07:25:58;38.15;;;27.88;;
23290;SDS011;11814;44.686;10.842;2023-03-14T07:28:23;39.72;;;28.48;;
23290;SDS011;11814;44.686;10.842;2023-03-14T07:30:49;44.47;;;27.75;;
23290;SDS011;11814;44.686;10.842;2023-03-14T07:33:15;41.17;;;27.27;;
23290;SDS011;11814;44.686;10.842;2023-03-14T07:35:41;36.08;;;27.08;;
23290;SDS011;11814;44.686;10.842;2023-03-14T07:38:07;43.38;;;27.95;;
23290;SDS011;11814;44.686;10.842;2023-03-14T07:40:32;44.08;;;29.27;;
23290;SDS011;11814;44.686;10.842;2023-03-14T07:42:58;45.08;;;27.38;;
23290;SDS011;11814;44.686;10.842;2023-03-14T07:45:24;35.70;;;26.98;;
23290;SDS011;11814;44.686;10.842;2023-03-14T07:47:50;37.72;;;26.73;;
23290;SDS011;11814;44.686;10.842;2023-03-14T07:50:15;42.25;;;26.80;;
23290;SDS011;11814;44.686;10.842;2023-03-14T07:52:41;40.78;;;28.27;;
23290;SDS011;11814;44.686;10.842;2023-03-14T07:55:07;43.47;;;29.33;;
23290;SDS011;11814;44.686;10.842;2023-03-14T07:57:33;39.97;;;31.02;;
23290;SDS011;11814;44.686;10.842;2023-03-14T07:59:59;43.70;;;30.55;;
23290;SDS011;11814;44.686;10.842;2023-03-14T08:02:24;48.88;;;32.22;;
23290;SDS011;11814;44.686;10.842;2023-03-14T08:04:50;47.17;;;32.90;;
23290;SDS011;11814;44.686;10.842;2023-03-14T08:07:16;47.92;;;31.13;;
23290;SDS011;11814;44.686;10.842;2023-03-14T08:09:42;38.28;;;28.02;;
23290;SDS011;11814;44.686;10.842;2023-03-14T08:12:08;37.72;;;25.63;;
23290;SDS011;11814;44.686;10.842;2023-03-14T08:14:33;33.42;;;23.23;;
23290;SDS011;11814;44.686;10.842;2023-03-14T08:16:59;32.40;;;23.55;;
23290;SDS011;11814;44.686;10.842;2023-03-14T08:19:25;32.05;;;22.50;;
23290;SDS011;11814;44.686;10.842;2023-03-14T08:21:51;32.42;;;23.17;;
23290;SDS011;11814;44.686;10.842;2023-03-14T08:24:17;34.08;;;23.05;;
23290;SDS011;11814;44.686;10.842;2023-03-14T08:26:43;36.72;;;22.92;;
23290;SDS011;11814;44.686;10.842;2023-03-14T08:29:09;32.05;;;22.73;;
23290;SDS011;11814;44.686;10.842;2023-03-14T08:31:35;29.95;;;21.60;;
23290;SDS011;11814;44.686;10.842;2023-03-14T08:34:01;31.20;;;20.45;;
23290;SDS011;11814;44.686;10.842;2023-03-14T08:36:27;29.58;;;21.95;;
23290;SDS011;11814;44.686;10.842;2023-03-14T08:38:53;26.92;;;20.38;;
23290;SDS011;11814;44.686;10.842;2023-03-14T08:41:19;28.38;;;19.77;;
23290;SDS011;11814;44.686;10.842;2023-03-14T08:43:45;29.67;;;19.08;;
23290;SDS011;11814;44.686;10.842;2023-03-14T08:46:11;25.67;;;18.10;;
23290;SDS011;11814;44.686;10.842;2023-03-14T08:48:37;23.95;;;18.10;;
23290;SDS011;11814;44.686;10.842;2023-03-14T08:51:09;23.75;;;17.17;;
23290;SDS011;11814;44.686;10.842;2023-03-14T08:53:37;26.83;;;16.45;;
23290;SDS011;11814;44.686;10.842;2023-03-14T08:56:04;28.17;;;16.52;;
23290;SDS011;11814;44.686;10.842;2023-03-14T08:58:31;22.02;;;15.32;;
23290;SDS011;11814;44.686;10.842;2023-03-14T09:00:57;18.50;;;14.35;;
23290;SDS011;11814;44.686;10.842;2023-03-14T09:03:23;19.40;;;14.10;;
23290;SDS011;11814;44.686;10.842;2023-03-14T09:05:50;18.17;;;15.10;;
23290;SDS011;11814;44.686;10.842;2023-03-14T09:08:16;20.10;;;13.45;;
23290;SDS011;11814;44.686;10.842;2023-03-14T09:10:42;22.77;;;13.70;;
23290;SDS011;11814;44.686;10.842;2023-03-14T09:13:08;20.13;;;13.10;;
23290;SDS011;11814;44.686;10.842;2023-03-14T09:15:34;18.52;;;13.25;;
23290;SDS011;11814;44.686;10.842;2023-03-14T09:17:59;18.45;;;12.10;;
23290;SDS011;11814;44.686;10.842;2023-03-14T09:20:25;19.58;;;12.00;;
23290;SDS011;11814;44.686;10.842;2023-03-14T09:22:51;15.60;;;11.77;;
23290;SDS011;11814;44.686;10.842;2023-03-14T09:25:17;23.42;;;12.88;;
23290;SDS011;11814;44.686;10.842;2023-03-14T09:27:43;19.40;;;12.85;;
23290;SDS011;11814;44.686;10.842;2023-03-14T09:30:09;19.80;;;12.07;;
23290;SDS011;11814;44.686;10.842;2023-03-14T09:32:35;20.60;;;12.30;;
23290;SDS011;11814;44.686;10.842;2023-03-14T09:35:01;18.33;;;11.48;;
23290;SDS011;11814;44.686;10.842;2023-03-14T09:37:27;19.23;;;12.05;;
23290;SDS011;11814;44.686;10.842;2023-03-14T09:39:53;15.52;;;9.75;;
23290;SDS011;11814;44.686;10.842;2023-03-14T09:42:20;17.25;;;10.68;;
23290;SDS011;11814;44.686;10.842;2023-03-14T09:44:57;16.70;;;10.73;;
23290;SDS011;11814;44.686;10.842;2023-03-14T09:47:26;13.05;;;8.75;;
23290;SDS011;11814;44.686;10.842;2023-03-14T09:49:53;13.23;;;8.73;;
23290;SDS011;11814;44.686;10.842;2023-03-14T09:52:27;16.52;;;8.07;;
23290;SDS011;11814;44.686;10.842;2023-03-14T09:54:59;12.52;;;8.65;;
23290;SDS011;11814;44.686;10.842;2023-03-14T09:57:32;14.10;;;9.05;;
23290;SDS011;11814;44.686;10.842;2023-03-14T10:00:19;14.65;;;9.43;;
23290;SDS011;11814;44.686;10.842;2023-03-14T10:02:49;12.82;;;7.63;;
23290;SDS011;11814;44.686;10.842;2023-03-14T10:05:19;13.63;;;8.18;;
23290;SDS011;11814;44.686;10.842;2023-03-14T10:07:48;17.42;;;9.50;;
23290;SDS011;11814;44.686;10.842;2023-03-14T10:10:16;16.25;;;8.88;;
23290;SDS011;11814;44.686;10.842;2023-03-14T10:12:44;21.13;;;9.50;;
23290;SDS011;11814;44.686;10.842;2023-03-14T10:15:30;13.60;;;9.23;;
23290;SDS011;11814;44.686;10.842;2023-03-14T10:17:59;15.82;;;9.90;;
23290;SDS011;11814;44.686;10.842;2023-03-14T10:20:33;19.70;;;10.48;;
23290;SDS011;11814;44.686;10.842;2023-03-14T10:23:05;15.02;;;9.13;;
23290;SDS011;11814;44.686;10.842;2023-03-14T10:25:59;14.05;;;9.25;;
23290;SDS011;11814;44.686;10.842;2023-03-14T10:28:33;15.52;;;9.45;;
23290;SDS011;11814;44.686;10.842;2023-03-14T10:31:03;15.13;;;9.45;;
23290;SDS011;11814;44.686;10.842;2023-03-14T10:33:33;15.75;;;9.80;;
23290;SDS011;11814;44.686;10.842;2023-03-14T10:36:02;14.38;;;8.95;;
23290;SDS011;11814;44.686;10.842;2023-03-14T10:38:28;13.95;;;9.57;;
23290;SDS011;11814;44.686;10.842;2023-03-14T10:40:56;13.65;;;8.23;;
23290;SDS011;11814;44.686;10.842;2023-03-14T10:43:33;15.00;;;8.18;;
23290;SDS011;11814;44.686;10.842;2023-03-14T10:46:02;12.88;;;8.05;;
23290;SDS011;11814;44.686;10.842;2023-03-14T10:48:35;11.82;;;7.55;;
23290;SDS011;11814;44.686;10.842;2023-03-14T10:51:04;16.20;;;8.07;;
23290;SDS011;11814;44.686;10.842;2023-03-14T10:53:49;13.18;;;7.22;;
23290;SDS011;11814;44.686;10.842;2023-03-14T10:56:21;13.40;;;7.60;;
23290;SDS011;11814;44.686;10.842;2023-03-14T10:58:50;12.70;;;7.95;;
23290;SDS011;11814;44.686;10.842;2023-03-14T11:01:39;18.30;;;6.93;;
23290;SDS011;11814;44.686;10.842;2023-03-14T11:12:08;14.20;;;7.15;;
23290;SDS011;11814;44.686;10.842;2023-03-14T11:14:40;11.00;;;6.72;;
23290;SDS011;11814;44.686;10.842;2023-03-14T11:25:40;14.35;;;6.95;;
23290;SDS011;11814;44.686;10.842;2023-03-14T11:28:25;11.70;;;6.53;;
23290;SDS011;11814;44.686;10.842;2023-03-14T11:30:55;13.32;;;6.80;;
23290;SDS011;11814;44.686;10.842;2023-03-14T11:33:47;16.35;;;7.43;;
23290;SDS011;11814;44.686;10.842;2023-03-14T11:36:25;14.80;;;6.50;;
23290;SDS011;11814;44.686;10.842;2023-03-14T11:39:03;12.35;;;6.93;;
23290;SDS011;11814;44.686;10.842;2023-03-14T11:41:53;14.50;;;7.30;;
23290;SDS011;11814;44.686;10.842;2023-03-14T11:44:23;18.95;;;7.63;;
23290;SDS011;11814;44.686;10.842;2023-03-14T11:52:35;14.05;;;7.13;;
23290;SDS011;11814;44.686;10.842;2023-03-14T11:55:12;12.75;;;6.63;;
23290;SDS011;11814;44.686;10.842;2023-03-14T11:57:44;16.25;;;7.38;;
23290;SDS011;11814;44.686;10.842;2023-03-14T12:00:18;18.83;;;8.60;;
23290;SDS011;11814;44.686;10.842;2023-03-14T12:13:46;12.43;;;5.10;;
23290;SDS011;11814;44.686;10.842;2023-03-14T12:18:49;8.13;;;4.75;;
23290;SDS011;11814;44.686;10.842;2023-03-14T12:21:16;8.82;;;5.30;;
23290;SDS011;11814;44.686;10.842;2023-03-14T12:23:52;10.70;;;6.15;;
23290;SDS011;11814;44.686;10.842;2023-03-14T12:26:24;7.85;;;5.13;;
23290;SDS011;11814;44.686;10.842;2023-03-14T12:31:40;15.63;;;6.07;;
23290;SDS011;11814;44.686;10.842;2023-03-14T12:45:13;8.65;;;4.82;;
23290;SDS011;11814;44.686;10.842;2023-03-14T12:47:49;10.40;;;4.95;;
23290;SDS011;11814;44.686;10.842;2023-03-14T12:50:18;8.82;;;4.93;;
23290;SDS011;11814;44.686;10.842;2023-03-14T13:01:46;13.23;;;5.75;;
23290;SDS011;11814;44.686;10.842;2023-03-14T13:04:18;8.27;;;5.05;;
23290;SDS011;11814;44.686;10.842;2023-03-14T13:06:54;10.65;;;5.43;;
23290;SDS011;11814;44.686;10.842;2023-03-14T13:12:03;8.98;;;5.20;;
23290;SDS011;11814;44.686;10.842;2023-03-14T13:14:36;7.82;;;5.00;;
23290;SDS011;11814;44.686;10.842;2023-03-14T13:17:11;10.20;;;5.15;;
23290;SDS011;11814;44.686;10.842;2023-03-14T13:19:38;10.00;;;5.90;;
23290;SDS011;11814;44.686;10.842;2023-03-14T13:22:15;9.45;;;5.70;;
23290;SDS011;11814;44.686;10.842;2023-03-14T13:24:47;8.23;;;5.70;;
23290;SDS011;11814;44.686;10.842;2023-03-14T13:27:17;10.95;;;5.75;;
23290;SDS011;11814;44.686;10.842;2023-03-14T13:29:45;9.20;;;6.55;;
23290;SDS011;11814;44.686;10.842;2023-03-14T13:32:19;9.85;;;6.70;;
23290;SDS011;11814;44.686;10.842;2023-03-14T13:34:47;10.98;;;5.97;;
23290;SDS011;11814;44.686;10.842;2023-03-14T13:37:20;10.38;;;6.78;;
23290;SDS011;11814;44.686;10.842;2023-03-14T13:39:55;13.93;;;6.90;;
23290;SDS011;11814;44.686;10.842;2023-03-14T13:42:26;10.23;;;7.07;;
23290;SDS011;11814;44.686;10.842;2023-03-14T13:44:55;9.13;;;7.15;;
23290;SDS011;11814;44.686;10.842;2023-03-14T13:47:22;11.85;;;7.00;;
23290;SDS011;11814;44.686;10.842;2023-03-14T13:49:50;11.20;;;7.68;;
23290;SDS011;11814;44.686;10.842;2023-03-14T13:52:24;12.25;;;7.10;;
23290;SDS011;11814;44.686;10.842;2023-03-14T13:54:54;10.35;;;7.18;;
23290;SDS011;11814;44.686;10.842;2023-03-14T13:57:22;9.00;;;6.63;;
23290;SDS011;11814;44.686;10.842;2023-03-14T13:59:58;12.90;;;7.13;;
23290;SDS011;11814;44.686;10.842;2023-03-14T14:02:38;10.02;;;6.53;;
23290;SDS011;11814;44.686;10.842;2023-03-14T14:05:04;11.18;;;6.90;;
23290;SDS011;11814;44.686;10.842;2023-03-14T14:07:30;10.35;;;6.65;;
23290;SDS011;11814;44.686;10.842;2023-03-14T14:09:57;11.48;;;6.32;;
23290;SDS011;11814;44.686;10.842;2023-03-14T14:12:33;12.35;;;6.25;;
23290;SDS011;11814;44.686;10.842;2023-03-14T14:15:23;12.85;;;6.70;;
23290;SDS011;11814;44.686;10.842;2023-03-14T14:17:57;8.88;;;6.50;;
23290;SDS011;11814;44.686;10.842;2023-03-14T14:20:30;8.25;;;6.25;;
23290;SDS011;11814;44.686;10.842;2023-03-14T14:23:04;9.32;;;6.38;;
23290;SDS011;11814;44.686;10.842;2023-03-14T14:25:39;8.93;;;5.78;;
23290;SDS011;11814;44.686;10.842;2023-03-14T14:28:15;10.48;;;6.88;;
23290;SDS011;11814;44.686;10.842;2023-03-14T14:30:41;11.43;;;7.03;;
23290;SDS011;11814;44.686;10.842;2023-03-14T14:33:10;11.52;;;7.25;;
23290;SDS011;11814;44.686;10.842;2023-03-14T14:35:41;10.57;;;7.57;;
23290;SDS011;11814;44.686;10.842;2023-03-14T14:38:16;11.73;;;7.13;;
23290;SDS011;11814;44.686;10.842;2023-03-14T14:40:43;12.57;;;7.80;;
23290;SDS011;11814;44.686;10.842;2023-03-14T14:43:10;12.50;;;7.60;;
23290;SDS011;11814;44.686;10.842;2023-03-14T14:45:42;10.38;;;7.68;;
23290;SDS011;11814;44.686;10.842;2023-03-14T14:48:11;12.65;;;7.55;;
23290;SDS011;11814;44.686;10.842;2023-03-14T14:50:39;10.60;;;7.10;;
23290;SDS011;11814;44.686;10.842;2023-03-14T14:56:03;12.93;;;7.60;;
23290;SDS011;11814;44.686;10.842;2023-03-14T14:58:40;9.95;;;7.22;;
23290;SDS011;11814;44.686;10.842;2023-03-14T15:01:22;10.75;;;6.97;;
23290;SDS011;11814;44.686;10.842;2023-03-14T15:03:52;10.68;;;7.10;;
23290;SDS011;11814;44.686;10.842;2023-03-14T15:06:19;8.95;;;6.57;;
23290;SDS011;11814;44.686;10.842;2023-03-14T15:08:46;10.60;;;6.88;;
23290;SDS011;11814;44.686;10.842;2023-03-14T15:11:20;9.68;;;6.85;;
23290;SDS011;11814;44.686;10.842;2023-03-14T15:13:48;11.32;;;6.97;;
23290;SDS011;11814;44.686;10.842;2023-03-14T15:16:18;11.82;;;7.10;;
23290;SDS011;11814;44.686;10.842;2023-03-14T15:18:48;12.52;;;5.97;;
23290;SDS011;11814;44.686;10.842;2023-03-14T15:21:18;10.25;;;6.57;;
23290;SDS011;11814;44.686;10.842;2023-03-14T15:23:43;11.48;;;6.60;;
23290;SDS011;11814;44.686;10.842;2023-03-14T15:26:13;18.30;;;7.00;;
23290;SDS011;11814;44.686;10.842;2023-03-14T15:28:42;10.15;;;6.82;;
23290;SDS011;11814;44.686;10.842;2023-03-14T15:31:09;10.40;;;6.70;;